Time,TemperatureF,DewpointF,PressureIn,WindDirection,WindDirectionDegrees,WindSpeedMPH,WindSpeedGustMPH,Humidity,HourlyPrecipIn,Conditions,Clouds,dailyrainin,SoftwareType,DateUTC
2013-03-10 00:02:00,53.0,50.0,30.18,East,93,2.0,3.0,87,-99.99,,,-99.99,,2013-03-10 05:02:00,
2013-03-10 00:11:00,53.0,50.0,30.18,East,93,2.0,3.0,87,-99.99,,,-99.99,,2013-03-10 05:11:00,
2013-03-10 00:22:00,52.0,49.0,30.18,SE,131,2.0,5.0,90,-99.99,,,-99.99,,2013-03-10 05:22:00,
2013-03-10 00:32:00,52.0,49.0,30.18,SE,131,2.0,5.0,90,-99.99,,,-99.99,,2013-03-10 05:32:00,
2013-03-10 00:42:00,52.0,49.0,30.18,NE,38,2.0,4.0,90,-99.99,,,-99.99,,2013-03-10 05:42:00,
2013-03-10 00:52:00,52.0,49.0,30.18,NE,38,2.0,4.0,90,-99.99,,,-99.99,,2013-03-10 05:52:00,
2013-03-10 01:02:00,51.0,48.0,30.17,NE,42,2.0,4.0,91,-99.99,,,-99.99,,2013-03-10 06:02:00,
2013-03-10 01:11:00,51.0,48.0,30.17,NE,42,2.0,4.0,91,-99.99,,,-99.99,,2013-03-10 06:11:00,
2013-03-10 01:22:00,52.0,50.0,30.15,East,85,3.0,6.0,92,-99.99,,,-99.99,,2013-03-10 06:22:00,
2013-03-10 01:30:00,50.0,48.0,30.14,NNE,31,1.0,3.0,91,-99.99,,,-99.99,,2013-03-10 06:30:00,
2013-03-10 01:32:00,52.0,50.0,30.15,East,85,3.0,6.0,92,-99.99,,,-99.99,,2013-03-10 06:32:00,
2013-03-10 01:42:00,54.0,50.0,30.15,ENE,68,2.0,4.0,86,-99.99,,,-99.99,,2013-03-10 06:42:00,
2013-03-10 01:52:00,54.0,50.0,30.15,ENE,68,2.0,4.0,86,-99.99,,,-99.99,,2013-03-10 06:52:00,
2013-03-10 03:02:00,50.0,48.0,30.14,NNE,31,1.0,3.0,91,-99.99,,,-99.99,,2013-03-10 07:02:00,
2013-03-10 03:11:00,50.0,48.0,30.14,NNE,31,1.0,3.0,91,-99.99,,,-99.99,,2013-03-10 07:11:00,
2013-03-10 03:21:00,50.0,48.0,30.14,NNE,31,1.0,3.0,91,-99.99,,,-99.99,,2013-03-10 07:21:00,
2013-03-10 07:12:00,47.0,46.0,30.12,South,190,1.0,2.0,96,-99.99,,,-99.99,,2013-03-10 11:12:00,
2013-03-10 07:21:00,46.0,45.0,30.12,SSE,153,1.0,2.0,96,-99.99,,,-99.99,,2013-03-10 11:21:00,
2013-03-10 07:32:00,46.0,45.0,30.12,SSE,153,1.0,2.0,96,-99.99,,,-99.99,,2013-03-10 11:32:00,
2013-03-10 07:42:00,46.0,45.0,30.13,West,279,1.0,2.0,96,-99.99,,,-99.99,,2013-03-10 11:42:00,
2013-03-10 07:52:00,46.0,45.0,30.13,West,279,1.0,2.0,96,-99.99,,,-99.99,,2013-03-10 11:52:00,
2013-03-10 08:02:00,46.0,45.0,30.12,ENE,68,1.0,4.0,96,-99.99,,,-99.99,,2013-03-10 12:02:00,
2013-03-10 08:11:00,46.0,45.0,30.12,ENE,68,1.0,4.0,96,-99.99,,,-99.99,,2013-03-10 12:11:00,
2013-03-10 08:21:00,46.0,46.0,30.13,NNE,32,3.0,5.0,97,-99.99,,,-99.99,,2013-03-10 12:21:00,
2013-03-10 08:32:00,46.0,46.0,30.13,NNE,32,3.0,5.0,97,-99.99,,,-99.99,,2013-03-10 12:32:00,
2013-03-10 08:42:00,45.0,44.0,30.14,SE,128,2.0,3.0,96,-99.99,,,-99.99,,2013-03-10 12:42:00,
2013-03-10 08:52:00,45.0,44.0,30.14,SE,128,2.0,3.0,96,-99.99,,,-99.99,,2013-03-10 12:52:00,
2013-03-10 09:01:00,46.0,45.0,30.14,NE,37,2.0,4.0,96,-99.99,,,-99.99,,2013-03-10 13:01:00,
2013-03-10 09:11:00,46.0,45.0,30.14,NE,37,2.0,4.0,96,-99.99,,,-99.99,,2013-03-10 13:11:00,
2013-03-10 09:21:00,52.0,51.0,30.15,ENE,67,3.0,7.0,96,-99.99,,,-99.99,,2013-03-10 13:21:00,
2013-03-10 09:32:00,52.0,51.0,30.15,ENE,67,3.0,7.0,96,-99.99,,,-99.99,,2013-03-10 13:32:00,
2013-03-10 09:42:00,56.0,54.0,30.15,NE,43,4.0,7.0,92,-99.99,,,-99.99,,2013-03-10 13:42:00,
2013-03-10 09:52:00,56.0,54.0,30.15,NE,43,4.0,7.0,92,-99.99,,,-99.99,,2013-03-10 13:52:00,
2013-03-10 10:02:00,59.0,54.0,30.15,NE,54,4.0,7.0,83,-99.99,,,-99.99,,2013-03-10 14:02:00,
2013-03-10 10:11:00,59.0,54.0,30.15,NE,54,4.0,7.0,83,-99.99,,,-99.99,,2013-03-10 14:11:00,
2013-03-10 10:22:00,64.0,54.0,30.16,NE,55,4.0,8.0,69,-99.99,,,-99.99,,2013-03-10 14:22:00,
2013-03-10 10:32:00,64.0,54.0,30.16,NE,55,4.0,8.0,69,-99.99,,,-99.99,,2013-03-10 14:32:00,
2013-03-10 10:42:00,65.0,54.0,30.16,ENE,57,5.0,9.0,67,-99.99,,,-99.99,,2013-03-10 14:42:00,
2013-03-10 10:52:00,65.0,54.0,30.16,ENE,57,5.0,9.0,67,-99.99,,,-99.99,,2013-03-10 14:52:00,
2013-03-10 11:01:00,68.0,55.0,30.15,ENE,74,6.0,13.0,62,-99.99,,,-99.99,,2013-03-10 15:01:00,
2013-03-10 11:11:00,68.0,55.0,30.15,ENE,74,6.0,13.0,62,-99.99,,,-99.99,,2013-03-10 15:11:00,
2013-03-10 11:21:00,70.0,54.0,30.14,East,80,9.0,19.0,56,-99.99,,,-99.99,,2013-03-10 15:21:00,
2013-03-10 11:32:00,70.0,54.0,30.14,East,80,9.0,19.0,56,-99.99,,,-99.99,,2013-03-10 15:32:00,
2013-03-10 11:42:00,71.0,54.0,30.15,East,89,9.0,19.0,55,-99.99,,,-99.99,,2013-03-10 15:42:00,
2013-03-10 11:52:00,71.0,54.0,30.15,East,89,9.0,19.0,55,-99.99,,,-99.99,,2013-03-10 15:52:00,
2013-03-10 12:02:00,72.0,54.0,30.15,East,101,8.0,19.0,53,-99.99,,,-99.99,,2013-03-10 16:02:00,
2013-03-10 12:12:00,72.0,54.0,30.15,East,101,8.0,19.0,53,-99.99,,,-99.99,,2013-03-10 16:12:00,
2013-03-10 12:21:00,73.0,53.0,30.15,ENE,78,10.0,17.0,50,-99.99,,,-99.99,,2013-03-10 16:21:00,
2013-03-10 12:32:00,73.0,53.0,30.15,ENE,78,10.0,17.0,50,-99.99,,,-99.99,,2013-03-10 16:32:00,
2013-03-10 12:42:00,73.0,54.0,30.14,East,85,9.0,17.0,50,-99.99,,,-99.99,,2013-03-10 16:42:00,
2013-03-10 12:52:00,73.0,54.0,30.14,East,85,9.0,17.0,50,-99.99,,,-99.99,,2013-03-10 16:52:00,
2013-03-10 13:01:00,75.0,54.0,30.14,ESE,102,8.0,18.0,48,-99.99,,,-99.99,,2013-03-10 17:01:00,
2013-03-10 13:11:00,75.0,54.0,30.14,ESE,102,8.0,18.0,48,-99.99,,,-99.99,,2013-03-10 17:11:00,
2013-03-10 13:21:00,75.0,54.0,30.13,East,88,9.0,18.0,47,-99.99,,,-99.99,,2013-03-10 17:21:00,
2013-03-10 13:32:00,75.0,54.0,30.13,East,88,9.0,18.0,47,-99.99,,,-99.99,,2013-03-10 17:32:00,
2013-03-10 13:41:00,75.0,54.0,30.12,East,81,10.0,19.0,46,-99.99,,,-99.99,,2013-03-10 17:41:00,
2013-03-10 13:52:00,75.0,54.0,30.12,East,81,10.0,19.0,46,-99.99,,,-99.99,,2013-03-10 17:52:00,
2013-03-10 14:01:00,76.0,54.0,30.12,East,96,9.0,19.0,45,-99.99,,,-99.99,,2013-03-10 18:01:00,
2013-03-10 14:12:00,76.0,54.0,30.12,East,96,9.0,19.0,45,-99.99,,,-99.99,,2013-03-10 18:12:00,
2013-03-10 14:22:00,77.0,54.0,30.10,East,92,9.0,22.0,44,-99.99,,,-99.99,,2013-03-10 18:22:00,
2013-03-10 14:32:00,77.0,54.0,30.10,East,92,9.0,22.0,44,-99.99,,,-99.99,,2013-03-10 18:32:00,
2013-03-10 14:42:00,77.0,53.0,30.09,East,92,9.0,17.0,43,-99.99,,,-99.99,,2013-03-10 18:42:00,
2013-03-10 14:52:00,77.0,53.0,30.09,East,92,9.0,17.0,43,-99.99,,,-99.99,,2013-03-10 18:52:00,
2013-03-10 15:02:00,78.0,53.0,30.08,ESE,117,10.0,18.0,43,-99.99,,,-99.99,,2013-03-10 19:02:00,
2013-03-10 15:11:00,78.0,53.0,30.07,SE,125,8.0,17.0,41,-99.99,,,-99.99,,2013-03-10 19:11:00,
2013-03-10 15:22:00,78.0,53.0,30.07,SE,125,8.0,17.0,41,-99.99,,,-99.99,,2013-03-10 19:22:00,
2013-03-10 15:32:00,78.0,54.0,30.07,ESE,103,8.0,18.0,43,-99.99,,,-99.99,,2013-03-10 19:32:00,
2013-03-10 15:42:00,78.0,54.0,30.07,ESE,103,8.0,18.0,43,-99.99,,,-99.99,,2013-03-10 19:42:00,
2013-03-10 15:53:00,78.0,54.0,30.07,ESE,103,8.0,18.0,43,-99.99,,,-99.99,,2013-03-10 19:53:00,
2013-03-10 16:02:00,79.0,54.0,30.07,SE,124,9.0,20.0,42,-99.99,,,-99.99,,2013-03-10 20:02:00,
2013-03-10 16:13:00,79.0,54.0,30.07,SE,124,9.0,20.0,42,-99.99,,,-99.99,,2013-03-10 20:13:00,
2013-03-10 16:22:00,79.0,54.0,30.06,ESE,107,9.0,19.0,42,-99.99,,,-99.99,,2013-03-10 20:22:00,
2013-03-10 16:32:00,78.0,54.0,30.06,East,95,7.0,15.0,43,-99.99,,,-99.99,,2013-03-10 20:32:00,
2013-03-10 16:43:00,78.0,54.0,30.06,East,95,7.0,15.0,43,-99.99,,,-99.99,,2013-03-10 20:43:00,
2013-03-10 16:53:00,78.0,54.0,30.06,East,95,7.0,15.0,43,-99.99,,,-99.99,,2013-03-10 20:53:00,
2013-03-10 17:02:00,79.0,54.0,30.05,ESE,105,9.0,39.0,42,-99.99,,,-99.99,,2013-03-10 21:02:00,
2013-03-10 17:12:00,79.0,54.0,30.05,ESE,105,9.0,39.0,42,-99.99,,,-99.99,,2013-03-10 21:12:00,
2013-03-10 17:23:00,76.0,54.0,30.05,East,100,6.0,13.0,46,-99.99,,,-99.99,,2013-03-10 21:23:00,
2013-03-10 17:33:00,77.0,54.0,30.04,ESE,109,6.0,13.0,45,-99.99,,,-99.99,,2013-03-10 21:33:00,
2013-03-10 17:42:00,77.0,54.0,30.04,ESE,109,6.0,13.0,45,-99.99,,,-99.99,,2013-03-10 21:42:00,
2013-03-10 17:53:00,77.0,54.0,30.04,ESE,109,6.0,13.0,45,-99.99,,,-99.99,,2013-03-10 21:53:00,
2013-03-10 18:03:00,76.0,54.0,30.04,SE,124,7.0,12.0,46,-99.99,,,-99.99,,2013-03-10 22:03:00,
2013-03-10 18:12:00,76.0,54.0,30.04,SE,124,7.0,12.0,46,-99.99,,,-99.99,,2013-03-10 22:12:00,
2013-03-10 18:22:00,76.0,55.0,30.05,ESE,118,7.0,13.0,47,-99.99,,,-99.99,,2013-03-10 22:22:00,
2013-03-10 18:32:00,76.0,55.0,30.05,ESE,118,7.0,13.0,47,-99.99,,,-99.99,,2013-03-10 22:32:00,
2013-03-10 18:43:00,75.0,54.0,30.05,ESE,118,6.0,11.0,47,-99.99,,,-99.99,,2013-03-10 22:43:00,
2013-03-10 18:53:00,75.0,54.0,30.05,ESE,118,6.0,11.0,47,-99.99,,,-99.99,,2013-03-10 22:53:00,
2013-03-10 19:03:00,77.0,55.0,30.05,ESE,117,6.0,14.0,46,-99.99,,,-99.99,,2013-03-10 23:03:00,
2013-03-10 19:12:00,77.0,55.0,30.05,ESE,117,6.0,14.0,46,-99.99,,,-99.99,,2013-03-10 23:12:00,
2013-03-10 19:23:00,75.0,54.0,30.05,East,85,6.0,11.0,47,-99.99,,,-99.99,,2013-03-10 23:23:00,
2013-03-10 19:33:00,75.0,54.0,30.05,East,85,6.0,11.0,47,-99.99,,,-99.99,,2013-03-10 23:33:00,
2013-03-10 19:42:00,74.0,54.0,30.05,East,83,5.0,10.0,49,-99.99,,,-99.99,,2013-03-10 23:42:00,
2013-03-10 19:53:00,74.0,54.0,30.05,East,83,5.0,10.0,49,-99.99,,,-99.99,,2013-03-10 23:53:00,
2013-03-10 20:03:00,73.0,54.0,30.06,East,94,4.0,9.0,51,-99.99,,,-99.99,,2013-03-11 00:03:00,
2013-03-10 20:13:00,73.0,54.0,30.06,East,94,4.0,9.0,51,-99.99,,,-99.99,,2013-03-11 00:13:00,
2013-03-10 20:23:00,70.0,54.0,30.06,East,99,4.0,7.0,55,-99.99,,,-99.99,,2013-03-11 00:23:00,
2013-03-10 20:33:00,70.0,54.0,30.06,East,99,4.0,7.0,55,-99.99,,,-99.99,,2013-03-11 00:33:00,
2013-03-10 20:43:00,69.0,54.0,30.07,ESE,102,4.0,9.0,56,-99.99,,,-99.99,,2013-03-11 00:43:00,
2013-03-10 20:53:00,69.0,54.0,30.07,ESE,102,4.0,9.0,56,-99.99,,,-99.99,,2013-03-11 00:53:00,
2013-03-10 21:03:00,68.0,54.0,30.07,ESE,102,3.0,7.0,58,-99.99,,,-99.99,,2013-03-11 01:03:00,
2013-03-10 21:13:00,68.0,54.0,30.07,ESE,102,3.0,7.0,58,-99.99,,,-99.99,,2013-03-11 01:13:00,
2013-03-10 21:23:00,66.0,53.0,30.08,East,100,3.0,6.0,63,-99.99,,,-99.99,,2013-03-11 01:23:00,
2013-03-10 21:32:00,66.0,53.0,30.08,East,100,3.0,6.0,63,-99.99,,,-99.99,,2013-03-11 01:32:00,
2013-03-10 21:43:00,65.0,54.0,30.08,East,94,4.0,6.0,65,-99.99,,,-99.99,,2013-03-11 01:43:00,
2013-03-10 21:53:00,65.0,54.0,30.08,East,94,4.0,6.0,65,-99.99,,,-99.99,,2013-03-11 01:53:00,
2013-03-10 22:03:00,64.0,53.0,30.09,East,88,3.0,7.0,66,-99.99,,,-99.99,,2013-03-11 02:03:00,
2013-03-10 22:13:00,64.0,53.0,30.09,East,88,3.0,7.0,66,-99.99,,,-99.99,,2013-03-11 02:13:00,
2013-03-10 22:23:00,64.0,54.0,30.10,East,85,4.0,8.0,69,-99.99,,,-99.99,,2013-03-11 02:23:00,
2013-03-10 22:32:00,64.0,54.0,30.10,East,85,4.0,8.0,69,-99.99,,,-99.99,,2013-03-11 02:32:00,
2013-03-10 22:42:00,63.0,54.0,30.11,East,80,4.0,7.0,70,-99.99,,,-99.99,,2013-03-11 02:42:00,
2013-03-10 22:53:00,63.0,54.0,30.11,East,80,4.0,7.0,70,-99.99,,,-99.99,,2013-03-11 02:53:00,
2013-03-10 23:02:00,64.0,54.0,30.11,East,84,5.0,9.0,71,-99.99,,,-99.99,,2013-03-11 03:02:00,
2013-03-10 23:12:00,64.0,54.0,30.11,East,84,5.0,9.0,71,-99.99,,,-99.99,,2013-03-11 03:12:00,
2013-03-10 23:22:00,64.0,55.0,30.12,East,87,4.0,9.0,72,-99.99,,,-99.99,,2013-03-11 03:22:00,
2013-03-10 23:32:00,64.0,55.0,30.12,East,87,4.0,9.0,72,-99.99,,,-99.99,,2013-03-11 03:32:00,
2013-03-10 23:42:00,63.0,55.0,30.12,East,86,4.0,7.0,75,-99.99,,,-99.99,,2013-03-11 03:42:00,
2013-03-10 23:53:00,63.0,55.0,30.12,East,86,4.0,7.0,75,-99.99,,,-99.99,,2013-03-11 03:53:00,